Buoy 51532

sailwx.info

Track history (hours):
 
Tides and Currents Weather Stations Pressure Air Temp Water Temp Dewpoint Dewpoint Depression Visibility Wind Speed Wind Dir Waves Ship Positions

Drifting buoy 51532

Last reported at 2015-Sep-18 12:30 UTC. Time now 2016-Jul-01 22:38 UTC.
Position N 34°05' W 128°50'.
Warning: this ship's position is months out of date.

Date/timePositionNaut miles runAvg speedWind from/ knotsBaromVisibWave heightAir tempDewpointWater temp
2015-Sep-18 12:30N 34°05' W 128°50'1 0.1
2015-Sep-18 03:34N 34°06' W 128°51'0 0.1
2015-Sep-18 00:08N 34°06' W 128°51'2 0.4 21.2
2015-Sep-17 18:00N 34°08' W 128°52'1 0.2 20.7
2015-Sep-17 14:59N 34°08' W 128°53'1 0.3 20.5
2015-Sep-17 12:40N 34°09' W 128°52'0 5.6 20.5
2015-Sep-17 12:38N 34°09' W 128°52'0 0.0 20.5
2015-Sep-17 10:58N 34°09' W 128°52'1 0.6 20.5
2015-Sep-17 09:16N 34°09' W 128°51'0 0.2 20.5
2015-Sep-17 07:12N 34°09' W 128°51'0 0.1
2015-Sep-17 05:36N 34°09' W 128°50'0 3.2 20.5
2015-Sep-17 05:31N 34°09' W 128°51'0 0.0
2015-Sep-17 04:53N 34°09' W 128°51'0 0.3 20.5
2015-Sep-17 03:56N 34°09' W 128°51'0 0.0 20.5
2015-Sep-17 03:01N 34°09' W 128°51'1 1.4 20.6
2015-Sep-17 02:29N 34°09' W 128°52'0 0.3 20.6
2015-Sep-17 01:21N 34°09' W 128°52'0 0.0 20.6
2015-Sep-17 00:44N 34°09' W 128°52'0 0.6 20.7
2015-Sep-17 00:17N 34°10' W 128°52'1 0.2 20.6
2015-Sep-16 20:56N 34°10' W 128°52'2 0.3 20.6
2015-Sep-16 15:06N 34°12' W 128°52'0 0.2 20.4
2015-Sep-16 13:04N 34°12' W 128°52'0 0.1 20.4
2015-Sep-16 11:12N 34°12' W 128°52'1 8.3 20.5
2015-Sep-16 11:05N 34°11' W 128°51'1 0.1 20.5
2015-Sep-16 06:50N 34°12' W 128°50'0 0.0 20.5
2015-Sep-16 05:54N 34°12' W 128°50'1 8.8 20.5
2015-Sep-16 05:49N 34°12' W 128°51'0 0.0 20.5
2015-Sep-16 05:09N 34°12' W 128°51'0 0.4 20.5
2015-Sep-16 04:17N 34°11' W 128°51'1 0.3 20.7
2015-Sep-16 01:56N 34°11' W 128°52'1 0.6 20.7
2015-Sep-16 01:06N 34°11' W 128°52'0 0.1 20.7
2015-Sep-15 22:50N 34°11' W 128°52'0 0.3 20.9
2015-Sep-15 21:07N 34°11' W 128°53'1 0.3 20.7
2015-Sep-15 16:57N 34°12' W 128°52'0 0.0 20.4
2015-Sep-15 15:15N 34°12' W 128°52'1 0.5 20.4
2015-Sep-15 13:53N 34°12' W 128°53'0 0.2 20.4
2015-Sep-15 13:02N 34°12' W 128°53'1 0.4 20.4
2015-Sep-15 11:20N 34°12' W 128°52'2 0.2 20.4
2015-Sep-15 00:02N 34°10' W 128°53'0 0.3 20.4
2015-Sep-14 23:04N 34°10' W 128°54'0 0.1 20.4
2015-Sep-14 19:00N 34°10' W 128°54'1 0.1 20.4
2015-Sep-14 14:12N 34°10' W 128°54'0 1.0 20.5
2015-Sep-14 13:52N 34°11' W 128°54'0 0.2 20.5
2015-Sep-14 13:10N 34°11' W 128°54'1 0.5 20.5
2015-Sep-14 11:39N 34°11' W 128°55'0 4.5 20.5
2015-Sep-14 11:34N 34°10' W 128°55'0 0.0 20.5
2015-Sep-14 11:28N 34°10' W 128°55'0 0.0 20.5
2015-Sep-14 09:51N 34°10' W 128°55'0 0.1 20.4
2015-Sep-14 05:57N 34°10' W 128°55'0 0.5 20.4
2015-Sep-14 04:58N 34°10' W 128°55'0 0.0 20.4
2015-Sep-14 04:54N 34°10' W 128°55'0 0.0 20.4
2015-Sep-14 04:38N 34°10' W 128°55'0 0.8 20.4
2015-Sep-14 04:17N 34°11' W 128°55'0 0.0 20.4
2015-Sep-14 03:46N 34°11' W 128°55'0 0.0 20.4
2015-Sep-14 03:06N 34°11' W 128°55'0 1.1 20.4
2015-Sep-14 02:57N 34°11' W 128°55'0 0.3 20.4
2015-Sep-14 02:09N 34°11' W 128°55'0 0.2 20.4
2015-Sep-14 01:24N 34°11' W 128°55'0 0.5 20.4
2015-Sep-14 00:27N 34°11' W 128°55'0 0.0 20.4
2015-Sep-13 23:46N 34°11' W 128°55'0 0.3 20.4
2015-Sep-13 23:15N 34°11' W 128°55'1 0.3 20.4
2015-Sep-13 20:14N 34°12' W 128°56'0 3.1 20.3
2015-Sep-13 20:11N 34°12' W 128°56'0 0.0 20.3
2015-Sep-13 19:20N 34°12' W 128°56'0 0.1 20.3
2015-Sep-13 18:37N 34°12' W 128°56'0 1.2 20.2
2015-Sep-13 18:29N 34°12' W 128°56'0 0.0 20.2
2015-Sep-13 17:43N 34°12' W 128°56'0 0.5 20.2
2015-Sep-13 16:48N 34°13' W 128°56'0 0.5
2015-Sep-13 16:25N 34°13' W 128°56'0 0.0 20.2
2015-Sep-13 15:44N 34°13' W 128°56'0 2.3 20.3
2015-Sep-13 15:36N 34°13' W 128°56'0 0.1 20.3
2015-Sep-13 14:50N 34°13' W 128°56'0 1.0 20.3
2015-Sep-13 14:47N 34°13' W 128°56'0 3.8 20.3
2015-Sep-13 14:44N 34°13' W 128°56'0 0.5 20.3
2015-Sep-13 14:04N 34°13' W 128°56'0 0.0 20.3
2015-Sep-13 13:56N 34°13' W 128°56'139.2 20.3
2015-Sep-13 13:55N 34°14' W 128°57'0 0.4 20.2
2015-Sep-13 13:24N 34°14' W 128°57'0 0.0 20.3
2015-Sep-13 13:09N 34°14' W 128°57'0 0.0 20.2
2015-Sep-13 13:07N 34°14' W 128°57'1 0.8 20.2
2015-Sep-13 12:15N 34°14' W 128°58'0 0.0 20.3
2015-Sep-13 11:52N 34°14' W 128°58'0 0.0 20.3
2015-Sep-13 11:49N 34°14' W 128°58'0 0.0 20.3
2015-Sep-13 11:46N 34°14' W 128°58'114.3 20.3
2015-Sep-13 11:43N 34°14' W 128°58'0 0.0 20.3
2015-Sep-13 11:40N 34°14' W 128°58'0 0.0 20.3
2015-Sep-13 10:08N 34°14' W 128°58'0 0.0 20.4
2015-Sep-13 10:05N 34°14' W 128°58'1 0.2 20.4
2015-Sep-13 07:03N 34°14' W 128°59'1 1.0 20.4
2015-Sep-13 06:17N 34°15' W 128°59'0 0.0 20.5
2015-Sep-13 05:22N 34°15' W 128°59'0 2.1 20.5
2015-Sep-13 05:14N 34°15' W 128°58'0 0.0 20.5
2015-Sep-13 05:08N 34°15' W 128°58'0 0.7 20.5
2015-Sep-13 04:38N 34°15' W 128°59'1 0.8 20.5
2015-Sep-13 03:29N 34°15' W 128°58'1 4.9 20.5
2015-Sep-13 03:18N 34°16' W 128°58'1 0.4 20.5
2015-Sep-13 00:54N 34°17' W 128°59'0 0.0 20.5
2015-Sep-12 23:58N 34°17' W 128°59'0 0.6 20.5
2015-Sep-12 23:20N 34°17' W 128°59'1 0.2 20.5
2015-Sep-12 18:58N 34°18' W 128°59'1 1.2 20.5
2015-Sep-12 18:04N 34°18' W 129°01'1 0.3 20.5
2015-Sep-12 15:55N 34°18' W 129°00'1 1.8 20.5
2015-Sep-12 15:15N 34°19' W 129°02'0 0.0 20.5
2015-Sep-12 14:12N 34°19' W 129°02'131.6 20.5
2015-Sep-12 14:11N 34°18' W 129°01'0 3.0 20.5
2015-Sep-12 14:04N 34°19' W 129°01'0 0.6 20.5
2015-Sep-12 13:37N 34°19' W 129°01'115.4 20.5
2015-Sep-12 13:34N 34°19' W 129°00'1 0.7 20.5
2015-Sep-12 12:32N 34°19' W 129°01'0 0.0 20.5
2015-Sep-12 12:26N 34°19' W 129°01'0 0.1 20.5
2015-Sep-12 12:00N 34°19' W 129°01'1 5.9 20.5
2015-Sep-12 11:54N 34°19' W 129°02'0 0.0 20.5
2015-Sep-12 11:51N 34°19' W 129°02'0 0.0 20.5
2015-Sep-12 10:17N 34°19' W 129°02'1 7.3 20.5
2015-Sep-12 10:11N 34°19' W 129°02'1 0.2 20.5
2015-Sep-12 06:36N 34°19' W 129°02'0 0.1 20.7
2015-Sep-12 05:39N 34°19' W 129°02'1 0.9 20.7
2015-Sep-12 04:58N 34°19' W 129°02'0 0.4 20.7
2015-Sep-12 04:01N 34°19' W 129°01'0 0.2 20.7
2015-Sep-12 02:55N 34°19' W 129°01'0 0.2 20.7
2015-Sep-12 01:51N 34°19' W 129°02'1 0.3 20.7
2015-Sep-12 00:08N 34°20' W 129°02'0 2.2 20.7
2015-Sep-12 00:00N 34°20' W 129°02'1 0.3 20.7
2015-Sep-11 21:57N 34°20' W 129°03'0 0.1 20.7
2015-Sep-11 20:12N 34°20' W 129°03'1 0.6 20.7
2015-Sep-11 19:10N 34°20' W 129°04'1 0.2 20.7
2015-Sep-11 16:06N 34°20' W 129°03'0 0.0 20.7
2015-Sep-11 16:00N 34°20' W 129°03'0 0.1 20.7
2015-Sep-11 14:16N 34°20' W 129°03'0 0.0 20.7
2015-Sep-11 14:09N 34°20' W 129°03'0 0.0 20.7
2015-Sep-11 14:00N 34°20' W 129°03'0 0.2 20.7
2015-Sep-11 12:14N 34°20' W 129°03'1 6.3 20.7
2015-Sep-11 12:05N 34°20' W 129°04'0 0.0 20.7
2015-Sep-11 12:02N 34°20' W 129°04'1 0.2 20.7
2015-Sep-11 05:57N 34°21' W 129°06'1 0.2 20.7
2015-Sep-11 03:17N 34°21' W 129°06'1 1.6 20.7
2015-Sep-11 02:51N 34°21' W 129°07'1 0.9 20.7
2015-Sep-11 02:02N 34°21' W 129°06'0 0.0
2015-Sep-11 01:57N 34°21' W 129°06'1 0.3 20.7
2015-Sep-11 00:11N 34°22' W 129°06'0 0.0 20.7
2015-Sep-11 00:02N 34°22' W 129°06'1 0.4 20.7
2015-Sep-10 22:04N 34°22' W 129°07'1 0.4 20.8
2015-Sep-10 19:33N 34°21' W 129°06'1 1.3
2015-Sep-10 18:46N 34°22' W 129°06'0 0.0 20.6
2015-Sep-10 17:55N 34°22' W 129°06'1 0.9 20.6
2015-Sep-10 17:00N 34°23' W 129°06'0 0.2 20.6
2015-Sep-10 16:11N 34°23' W 129°06'0 0.0 20.6
2015-Sep-10 16:05N 34°23' W 129°06'1 0.2 20.6
2015-Sep-10 13:02N 34°23' W 129°07'1 1.7 20.7
2015-Sep-10 12:17N 34°24' W 129°08'0 0.0
2015-Sep-10 12:16N 34°24' W 129°08'1 0.1 20.7
2015-Sep-10 04:58N 34°23' W 129°09'1 0.5 20.8
2015-Sep-10 03:52N 34°23' W 129°09'1 0.5
2015-Sep-10 02:08N 34°23' W 129°08'0 0.2 20.8
2015-Sep-09 23:57N 34°23' W 129°09'1 0.3 20.8
2015-Sep-09 19:04N 34°24' W 129°09'1 1.3 20.8
2015-Sep-09 18:08N 34°25' W 129°09'0 0.0 20.8
2015-Sep-09 17:26N 34°25' W 129°09'2 0.6 20.8
2015-Sep-09 14:47N 34°25' W 129°11'1 0.2 20.8
2015-Sep-09 06:45N 34°24' W 129°12'0 0.3 20.9
2015-Sep-09 05:59N 34°24' W 129°13'0 0.3 20.9
2015-Sep-09 04:58N 34°24' W 129°12'0 0.0 20.9
2015-Sep-09 03:59N 34°24' W 129°12'0 0.3 20.9
2015-Sep-09 03:50N 34°24' W 129°12'0 0.1 21.0
2015-Sep-09 02:15N 34°25' W 129°12'1 0.3 21.0
2015-Sep-09 00:08N 34°25' W 129°12'1 0.3 21.0
2015-Sep-08 20:48N 34°26' W 129°12'0 0.0 21.0
2015-Sep-08 20:17N 34°26' W 129°12'1 0.6 21.0
2015-Sep-08 17:47N 34°27' W 129°14'0 0.2 21.0
2015-Sep-08 15:16N 34°26' W 129°14'0 1.0 21.0
2015-Sep-08 15:07N 34°26' W 129°14'0 0.4 21.0
2015-Sep-08 14:03N 34°26' W 129°15'0 0.6 21.0
2015-Sep-08 13:17N 34°27' W 129°14'   21.0
Track history (hours):
 
Tides and Currents Weather Stations Pressure Air Temp Water Temp Dewpoint Dewpoint Depression Visibility Wind Speed Wind Dir Waves Ship Positions

Drifting buoy 51532

Last reported at 2015-Sep-18 12:30 UTC. Time now 2016-Jul-01 22:38 UTC.
Position N 34°05' W 128°50'.
Warning: this ship's position is months out of date.

Date/timePositionNaut miles runAvg speedWind from/ knotsBaromVisibWave heightAir tempDewpointWater temp
2015-Sep-18 12:30N 34°05' W 128°50'1 0.1
2015-Sep-18 03:34N 34°06' W 128°51'0 0.1
2015-Sep-18 00:08N 34°06' W 128°51'2 0.4 21.2
2015-Sep-17 18:00N 34°08' W 128°52'1 0.2 20.7
2015-Sep-17 14:59N 34°08' W 128°53'1 0.3 20.5
2015-Sep-17 12:40N 34°09' W 128°52'0 5.6 20.5
2015-Sep-17 12:38N 34°09' W 128°52'0 0.0 20.5
2015-Sep-17 10:58N 34°09' W 128°52'1 0.6 20.5
2015-Sep-17 09:16N 34°09' W 128°51'0 0.2 20.5
2015-Sep-17 07:12N 34°09' W 128°51'0 0.1
2015-Sep-17 05:36N 34°09' W 128°50'0 3.2 20.5
2015-Sep-17 05:31N 34°09' W 128°51'0 0.0
2015-Sep-17 04:53N 34°09' W 128°51'0 0.3 20.5
2015-Sep-17 03:56N 34°09' W 128°51'0 0.0 20.5
2015-Sep-17 03:01N 34°09' W 128°51'1 1.4 20.6
2015-Sep-17 02:29N 34°09' W 128°52'0 0.3 20.6
2015-Sep-17 01:21N 34°09' W 128°52'0 0.0 20.6
2015-Sep-17 00:44N 34°09' W 128°52'0 0.6 20.7
2015-Sep-17 00:17N 34°10' W 128°52'1 0.2 20.6
2015-Sep-16 20:56N 34°10' W 128°52'2 0.3 20.6
2015-Sep-16 15:06N 34°12' W 128°52'0 0.2 20.4
2015-Sep-16 13:04N 34°12' W 128°52'0 0.1 20.4
2015-Sep-16 11:12N 34°12' W 128°52'1 8.3 20.5
2015-Sep-16 11:05N 34°11' W 128°51'1 0.1 20.5
2015-Sep-16 06:50N 34°12' W 128°50'0 0.0 20.5
2015-Sep-16 05:54N 34°12' W 128°50'1 8.8 20.5
2015-Sep-16 05:49N 34°12' W 128°51'0 0.0 20.5
2015-Sep-16 05:09N 34°12' W 128°51'0 0.4 20.5
2015-Sep-16 04:17N 34°11' W 128°51'1 0.3 20.7
2015-Sep-16 01:56N 34°11' W 128°52'1 0.6 20.7
2015-Sep-16 01:06N 34°11' W 128°52'0 0.1 20.7
2015-Sep-15 22:50N 34°11' W 128°52'0 0.3 20.9
2015-Sep-15 21:07N 34°11' W 128°53'1 0.3 20.7
2015-Sep-15 16:57N 34°12' W 128°52'0 0.0 20.4
2015-Sep-15 15:15N 34°12' W 128°52'1 0.5 20.4
2015-Sep-15 13:53N 34°12' W 128°53'0 0.2 20.4
2015-Sep-15 13:02N 34°12' W 128°53'1 0.4 20.4
2015-Sep-15 11:20N 34°12' W 128°52'2 0.2 20.4
2015-Sep-15 00:02N 34°10' W 128°53'0 0.3 20.4
2015-Sep-14 23:04N 34°10' W 128°54'0 0.1 20.4
2015-Sep-14 19:00N 34°10' W 128°54'1 0.1 20.4
2015-Sep-14 14:12N 34°10' W 128°54'0 1.0 20.5
2015-Sep-14 13:52N 34°11' W 128°54'0 0.2 20.5
2015-Sep-14 13:10N 34°11' W 128°54'1 0.5 20.5
2015-Sep-14 11:39N 34°11' W 128°55'0 4.5 20.5
2015-Sep-14 11:34N 34°10' W 128°55'0 0.0 20.5
2015-Sep-14 11:28N 34°10' W 128°55'0 0.0 20.5
2015-Sep-14 09:51N 34°10' W 128°55'0 0.1 20.4
2015-Sep-14 05:57N 34°10' W 128°55'0 0.5 20.4
2015-Sep-14 04:58N 34°10' W 128°55'0 0.0 20.4
2015-Sep-14 04:54N 34°10' W 128°55'0 0.0 20.4
2015-Sep-14 04:38N 34°10' W 128°55'0 0.8 20.4
2015-Sep-14 04:17N 34°11' W 128°55'0 0.0 20.4
2015-Sep-14 03:46N 34°11' W 128°55'0 0.0 20.4
2015-Sep-14 03:06N 34°11' W 128°55'0 1.1 20.4
2015-Sep-14 02:57N 34°11' W 128°55'0 0.3 20.4
2015-Sep-14 02:09N 34°11' W 128°55'0 0.2 20.4
2015-Sep-14 01:24N 34°11' W 128°55'0 0.5 20.4
2015-Sep-14 00:27N 34°11' W 128°55'0 0.0 20.4
2015-Sep-13 23:46N 34°11' W 128°55'0 0.3 20.4
2015-Sep-13 23:15N 34°11' W 128°55'1 0.3 20.4
2015-Sep-13 20:14N 34°12' W 128°56'0 3.1 20.3
2015-Sep-13 20:11N 34°12' W 128°56'0 0.0 20.3
2015-Sep-13 19:20N 34°12' W 128°56'0 0.1 20.3
2015-Sep-13 18:37N 34°12' W 128°56'0 1.2 20.2
2015-Sep-13 18:29N 34°12' W 128°56'0 0.0 20.2
2015-Sep-13 17:43N 34°12' W 128°56'0 0.5 20.2
2015-Sep-13 16:48N 34°13' W 128°56'0 0.5
2015-Sep-13 16:25N 34°13' W 128°56'0 0.0 20.2
2015-Sep-13 15:44N 34°13' W 128°56'0 2.3 20.3
2015-Sep-13 15:36N 34°13' W 128°56'0 0.1 20.3
2015-Sep-13 14:50N 34°13' W 128°56'0 1.0 20.3
2015-Sep-13 14:47N 34°13' W 128°56'0 3.8 20.3
2015-Sep-13 14:44N 34°13' W 128°56'0 0.5 20.3
2015-Sep-13 14:04N 34°13' W 128°56'0 0.0 20.3
2015-Sep-13 13:56N 34°13' W 128°56'139.2 20.3
2015-Sep-13 13:55N 34°14' W 128°57'0 0.4 20.2
2015-Sep-13 13:24N 34°14' W 128°57'0 0.0 20.3
2015-Sep-13 13:09N 34°14' W 128°57'0 0.0 20.2
2015-Sep-13 13:07N 34°14' W 128°57'1 0.8 20.2
2015-Sep-13 12:15N 34°14' W 128°58'0 0.0 20.3
2015-Sep-13 11:52N 34°14' W 128°58'0 0.0 20.3
2015-Sep-13 11:49N 34°14' W 128°58'0 0.0 20.3
2015-Sep-13 11:46N 34°14' W 128°58'114.3 20.3
2015-Sep-13 11:43N 34°14' W 128°58'0 0.0 20.3
2015-Sep-13 11:40N 34°14' W 128°58'0 0.0 20.3
2015-Sep-13 10:08N 34°14' W 128°58'0 0.0 20.4
2015-Sep-13 10:05N 34°14' W 128°58'1 0.2 20.4
2015-Sep-13 07:03N 34°14' W 128°59'1 1.0 20.4
2015-Sep-13 06:17N 34°15' W 128°59'0 0.0 20.5
2015-Sep-13 05:22N 34°15' W 128°59'0 2.1 20.5
2015-Sep-13 05:14N 34°15' W 128°58'0 0.0 20.5
2015-Sep-13 05:08N 34°15' W 128°58'0 0.7 20.5
2015-Sep-13 04:38N 34°15' W 128°59'1 0.8 20.5
2015-Sep-13 03:29N 34°15' W 128°58'1 4.9 20.5
2015-Sep-13 03:18N 34°16' W 128°58'1 0.4 20.5
2015-Sep-13 00:54N 34°17' W 128°59'0 0.0 20.5
2015-Sep-12 23:58N 34°17' W 128°59'0 0.6 20.5
2015-Sep-12 23:20N 34°17' W 128°59'1 0.2 20.5
2015-Sep-12 18:58N 34°18' W 128°59'1 1.2 20.5
2015-Sep-12 18:04N 34°18' W 129°01'1 0.3 20.5
2015-Sep-12 15:55N 34°18' W 129°00'1 1.8 20.5
2015-Sep-12 15:15N 34°19' W 129°02'0 0.0 20.5
2015-Sep-12 14:12N 34°19' W 129°02'131.6 20.5
2015-Sep-12 14:11N 34°18' W 129°01'0 3.0 20.5
2015-Sep-12 14:04N 34°19' W 129°01'0 0.6 20.5
2015-Sep-12 13:37N 34°19' W 129°01'115.4 20.5
2015-Sep-12 13:34N 34°19' W 129°00'1 0.7 20.5
2015-Sep-12 12:32N 34°19' W 129°01'0 0.0 20.5
2015-Sep-12 12:26N 34°19' W 129°01'0 0.1 20.5
2015-Sep-12 12:00N 34°19' W 129°01'1 5.9 20.5
2015-Sep-12 11:54N 34°19' W 129°02'0 0.0 20.5
2015-Sep-12 11:51N 34°19' W 129°02'0 0.0 20.5
2015-Sep-12 10:17N 34°19' W 129°02'1 7.3 20.5
2015-Sep-12 10:11N 34°19' W 129°02'1 0.2 20.5
2015-Sep-12 06:36N 34°19' W 129°02'0 0.1 20.7
2015-Sep-12 05:39N 34°19' W 129°02'1 0.9 20.7
2015-Sep-12 04:58N 34°19' W 129°02'0 0.4 20.7
2015-Sep-12 04:01N 34°19' W 129°01'0 0.2 20.7
2015-Sep-12 02:55N 34°19' W 129°01'0 0.2 20.7
2015-Sep-12 01:51N 34°19' W 129°02'1 0.3 20.7
2015-Sep-12 00:08N 34°20' W 129°02'0 2.2 20.7
2015-Sep-12 00:00N 34°20' W 129°02'1 0.3 20.7
2015-Sep-11 21:57N 34°20' W 129°03'0 0.1 20.7
2015-Sep-11 20:12N 34°20' W 129°03'1 0.6 20.7
2015-Sep-11 19:10N 34°20' W 129°04'1 0.2 20.7
2015-Sep-11 16:06N 34°20' W 129°03'0 0.0 20.7
2015-Sep-11 16:00N 34°20' W 129°03'0 0.1 20.7
2015-Sep-11 14:16N 34°20' W 129°03'0 0.0 20.7
2015-Sep-11 14:09N 34°20' W 129°03'0 0.0 20.7
2015-Sep-11 14:00N 34°20' W 129°03'0 0.2 20.7
2015-Sep-11 12:14N 34°20' W 129°03'1 6.3 20.7
2015-Sep-11 12:05N 34°20' W 129°04'0 0.0 20.7
2015-Sep-11 12:02N 34°20' W 129°04'1 0.2 20.7
2015-Sep-11 05:57N 34°21' W 129°06'1 0.2 20.7
2015-Sep-11 03:17N 34°21' W 129°06'1 1.6 20.7
2015-Sep-11 02:51N 34°21' W 129°07'1 0.9 20.7
2015-Sep-11 02:02N 34°21' W 129°06'0 0.0
2015-Sep-11 01:57N 34°21' W 129°06'1 0.3 20.7
2015-Sep-11 00:11N 34°22' W 129°06'0 0.0 20.7
2015-Sep-11 00:02N 34°22' W 129°06'1 0.4 20.7
2015-Sep-10 22:04N 34°22' W 129°07'1 0.4 20.8
2015-Sep-10 19:33N 34°21' W 129°06'1 1.3
2015-Sep-10 18:46N 34°22' W 129°06'0 0.0 20.6
2015-Sep-10 17:55N 34°22' W 129°06'1 0.9 20.6
2015-Sep-10 17:00N 34°23' W 129°06'0 0.2 20.6
2015-Sep-10 16:11N 34°23' W 129°06'0 0.0 20.6
2015-Sep-10 16:05N 34°23' W 129°06'1 0.2 20.6
2015-Sep-10 13:02N 34°23' W 129°07'1 1.7 20.7
2015-Sep-10 12:17N 34°24' W 129°08'0 0.0
2015-Sep-10 12:16N 34°24' W 129°08'1 0.1 20.7
2015-Sep-10 04:58N 34°23' W 129°09'1 0.5 20.8
2015-Sep-10 03:52N 34°23' W 129°09'1 0.5
2015-Sep-10 02:08N 34°23' W 129°08'0 0.2 20.8
2015-Sep-09 23:57N 34°23' W 129°09'1 0.3 20.8
2015-Sep-09 19:04N 34°24' W 129°09'1 1.3 20.8
2015-Sep-09 18:08N 34°25' W 129°09'0 0.0 20.8
2015-Sep-09 17:26N 34°25' W 129°09'2 0.6 20.8
2015-Sep-09 14:47N 34°25' W 129°11'1 0.2 20.8
2015-Sep-09 06:45N 34°24' W 129°12'0 0.3 20.9
2015-Sep-09 05:59N 34°24' W 129°13'0 0.3 20.9
2015-Sep-09 04:58N 34°24' W 129°12'0 0.0 20.9
2015-Sep-09 03:59N 34°24' W 129°12'0 0.3 20.9
2015-Sep-09 03:50N 34°24' W 129°12'0 0.1 21.0
2015-Sep-09 02:15N 34°25' W 129°12'1 0.3 21.0
2015-Sep-09 00:08N 34°25' W 129°12'1 0.3 21.0
2015-Sep-08 20:48N 34°26' W 129°12'0 0.0 21.0
2015-Sep-08 20:17N 34°26' W 129°12'1 0.6 21.0
2015-Sep-08 17:47N 34°27' W 129°14'0 0.2 21.0
2015-Sep-08 15:16N 34°26' W 129°14'0 1.0 21.0
2015-Sep-08 15:07N 34°26' W 129°14'0 0.4 21.0
2015-Sep-08 14:03N 34°26' W 129°15'0 0.6 21.0
2015-Sep-08 13:17N 34°27' W 129°14'   21.0

Dump ship's entire track history